Time;durP1;ratioP1;P1;durP2;ratioP2;P2;SDS_P1;SDS_P2;PMS_P1;PMS_P2;Temp;Humidity;BMP_temperature;BMP_pressure;BME280_temperature;BME280_humidity;BME280_pressure;Samples;Min_cycle;Max_cycle;Signal;HPM_P1;HPM_P2
2022/11/23 00:01:32;;;;;;;;;0.75;0.75;;;;;8.74;68.96;99693.19;5111012;27;45370;-87
2022/11/23 00:04:02;;;;;;;;;2.00;1.00;;;;;8.71;68.95;99689.81;5077474;28;46512;-87
2022/11/23 00:06:27;;;;;;;;;2.75;0.75;;;;;8.65;68.92;99694.38;5059449;28;45339;-86
2022/11/23 00:08:53;;;;;;;;;2.75;1.00;;;;;8.60;69.48;99696.28;5076920;28;45416;-86
2022/11/23 00:11:20;;;;;;;;;2.75;1.00;;;;;8.55;69.79;99688.69;5076713;28;45597;-87
2022/11/23 00:13:45;;;;;;;;;1.75;1.00;;;;;8.49;70.05;99688.91;5076515;28;46397;-87
2022/11/23 00:16:16;;;;;;;;;0.25;0.00;;;;;8.44;70.15;99689.06;5076443;28;45345;-87
2022/11/23 00:18:42;;;;;;;;;1.50;1.00;;;;;8.39;70.44;99685.75;5076318;28;45367;-86
2022/11/23 00:21:08;;;;;;;;;1.75;1.00;;;;;8.36;70.23;99687.63;5076431;28;45464;-86
2022/11/23 00:23:34;;;;;;;;;5.25;0.50;;;;;8.30;70.68;99691.28;5076548;28;46291;-87
2022/11/23 00:26:00;;;;;;;;;1.00;0.50;;;;;8.25;70.87;99688.88;5076223;28;45354;-87
2022/11/23 00:28:25;;;;;;;;;0.75;0.50;;;;;8.21;71.22;99697.66;5075691;28;57152;-87
2022/11/23 00:30:50;;;;;;;;;1.75;1.00;;;;;8.19;71.51;99694.28;5076355;28;47007;-87
2022/11/23 00:33:16;;;;;;;;;1.25;0.00;;;;;8.17;70.96;99693.47;5076166;27;72736;-86
2022/11/23 00:35:42;;;;;;;;;3.50;1.00;;;;;8.15;71.57;99684.91;5076236;28;45664;-86
2022/11/23 00:38:07;;;;;;;;;4.75;2.00;;;;;8.14;71.71;99691.00;5076589;27;67197;-87
2022/11/23 00:40:32;;;;;;;;;0.00;0.00;;;;;8.11;72.13;99688.50;5075369;28;64736;-87
2022/11/23 00:42:58;;;;;;;;;2.25;1.00;;;;;8.12;72.02;99691.06;5076428;28;66138;-86
2022/11/23 00:45:23;;;;;;;;;5.25;0.75;;;;;8.14;71.64;99686.66;5075401;28;59031;-87
2022/11/23 00:47:48;;;;;;;;;1.75;0.25;;;;;8.15;71.73;99687.50;5075210;28;55890;-86
2022/11/23 00:50:14;;;;;;;;;7.00;1.00;;;;;8.13;72.12;99678.94;5075200;28;67069;-86
2022/11/23 00:52:39;;;;;;;;;1.00;0.75;;;;;8.13;72.13;99677.22;5075554;27;47210;-87
2022/11/23 00:55:05;;;;;;;;;1.00;0.00;;;;;8.09;72.29;99672.16;5075915;28;45419;-87
2022/11/23 00:57:32;;;;;;;;;3.25;1.00;;;;;8.08;72.40;99668.75;5077259;28;45350;-87
2022/11/23 00:59:57;;;;;;;;;4.00;1.00;;;;;8.09;72.40;99669.59;5092853;27;45483;-87
2022/11/23 01:02:22;;;;;;;;;2.00;1.00;;;;;8.08;72.70;99665.31;5074793;28;68880;-87
2022/11/23 01:04:48;;;;;;;;;3.25;1.00;;;;;8.03;72.84;99662.88;5076117;27;66406;-87
2022/11/23 01:07:13;;;;;;;;;2.50;1.00;;;;;8.03;72.87;99668.06;5075063;28;68686;-86
2022/11/23 01:09:38;;;;;;;;;1.75;0.75;;;;;8.01;72.95;99675.03;5074800;28;71850;-86
2022/11/23 01:12:04;;;;;;;;;0.00;0.00;;;;;7.98;73.07;99669.13;5074853;28;70486;-87
2022/11/23 01:14:29;;;;;;;;;3.75;1.00;;;;;7.97;72.84;99672.59;5075626;28;45388;-87
2022/11/23 01:16:54;;;;;;;;;4.00;1.00;;;;;7.93;73.26;99664.94;5074665;28;62497;-87
2022/11/23 01:19:20;;;;;;;;;2.00;1.00;;;;;7.89;73.61;99657.31;5075143;28;56251;-87
2022/11/23 01:21:46;;;;;;;;;2.00;0.00;;;;;7.88;73.82;99653.06;5075396;28;45515;-87
2022/11/23 01:24:21;;;;;;;;;5.50;1.50;;;;;7.87;73.70;99648.75;5075490;28;45515;-86
2022/11/23 01:26:51;;;;;;;;;3.25;1.00;;;;;7.84;73.24;99639.38;5075426;28;45412;-86
2022/11/23 01:29:16;;;;;;;;;4.00;1.00;;;;;7.82;74.16;99642.88;5075376;28;45487;-87
2022/11/23 01:31:42;;;;;;;;;4.00;1.00;;;;;7.80;73.47;99631.75;5076042;28;46041;-87
2022/11/23 01:34:10;;;;;;;;;1.75;1.75;;;;;7.79;73.56;99632.66;5058447;28;45424;-86
2022/11/23 01:36:35;;;;;;;;;0.00;0.00;;;;;7.80;73.57;99623.97;5058466;28;45484;-86
2022/11/23 01:39:02;;;;;;;;;0.00;0.00;;;;;7.79;73.85;99623.13;5075557;27;70731;-87
2022/11/23 01:41:31;;;;;;;;;1.00;0.00;;;;;7.79;73.56;99622.28;5074573;28;45377;-86
2022/11/23 01:43:56;;;;;;;;;1.00;1.00;;;;;7.77;74.00;99614.56;5076356;28;45344;-86
2022/11/23 01:46:22;;;;;;;;;0.50;0.50;;;;;7.78;73.90;99621.44;5073951;28;66091;-87
2022/11/23 01:48:50;;;;;;;;;3.50;1.00;;;;;7.78;73.86;99618.00;5058248;28;45232;-87
2022/11/23 01:51:30;;;;;;;;;2.00;0.50;;;;;7.76;73.68;99615.44;5092011;27;46282;-87
2022/11/23 01:54:17;;;;;;;;;1.00;0.00;;;;;7.74;73.88;99619.84;5074663;28;45330;-87
2022/11/23 01:56:50;;;;;;;;;5.50;1.00;;;;;7.70;74.42;99619.09;5075145;28;45416;-86
2022/11/23 01:59:18;;;;;;;;;0.00;0.00;;;;;7.67;74.37;99611.47;5074792;28;45337;-86
2022/11/23 02:01:43;;;;;;;;;1.25;1.00;;;;;7.65;74.09;99613.25;5074508;28;53390;-86
2022/11/23 02:04:13;;;;;;;;;6.25;0.75;;;;;7.67;74.41;99615.78;5074718;27;45392;-86
2022/11/23 02:06:40;;;;;;;;;1.25;0.25;;;;;7.71;74.39;99612.19;5054702;28;45392;-86
2022/11/23 02:09:05;;;;;;;;;5.00;0.75;;;;;7.70;74.49;99607.91;5071327;28;50452;-86
2022/11/23 02:11:31;;;;;;;;;2.00;1.00;;;;;7.71;74.48;99612.19;5070509;28;75203;-87
2022/11/23 02:13:56;;;;;;;;;4.00;0.00;;;;;7.68;74.50;99610.53;5069924;28;72698;-86
2022/11/23 02:16:22;;;;;;;;;5.25;2.00;;;;;7.70;74.71;99602.72;5055818;28;45312;-87
2022/11/23 02:18:48;;;;;;;;;1.25;1.25;;;;;7.68;74.82;99613.13;5070835;28;65293;-87
2022/11/23 02:21:14;;;;;;;;;0.50;0.50;;;;;7.70;74.81;99605.31;5036981;28;63611;-87
2022/11/23 02:24:04;;;;;;;;;2.00;0.50;;;;;7.68;74.81;99613.13;5071268;28;45391;-87
2022/11/23 02:26:32;;;;;;;;;6.50;0.75;;;;;7.67;74.87;99602.81;5055645;28;45519;-86
2022/11/23 02:29:16;;;;;;;;;1.75;1.00;;;;;7.66;74.75;99601.16;5054051;28;45461;-87
2022/11/23 02:31:41;;;;;;;;;3.00;1.25;;;;;7.67;74.86;99606.28;5071116;28;47209;-87
2022/11/23 02:34:07;;;;;;;;;1.50;0.00;;;;;7.66;74.92;99611.50;5054820;28;67929;-87
2022/11/23 02:36:38;;;;;;;;;2.00;1.00;;;;;7.67;74.92;99610.59;5054582;28;67136;-87
2022/11/23 02:39:16;;;;;;;;;3.50;1.00;;;;;7.66;74.98;99598.56;5088295;27;45360;-86
2022/11/23 02:41:44;;;;;;;;;1.75;1.00;;;;;7.62;75.04;99600.41;5053808;28;47446;-86
2022/11/23 02:44:51;;;;;;;;;5.00;1.50;;;;;7.63;75.21;99596.91;5037070;28;45410;-86
2022/11/23 02:47:16;;;;;;;;;4.25;1.50;;;;;7.64;75.58;99593.44;4996489;28;45591;-87
2022/11/23 02:49:45;;;;;;;;;4.00;2.00;;;;;7.64;75.60;99582.22;4996806;28;45370;-86
2022/11/23 02:52:10;;;;;;;;;9.75;4.00;;;;;7.65;75.75;99592.53;5012886;28;45493;-87
2022/11/23 02:54:35;;;;;;;;;1.00;0.00;;;;;7.65;76.14;99591.69;4966193;28;62452;-86
2022/11/23 02:57:01;;;;;;;;;2.50;2.00;;;;;7.66;76.46;99586.44;4963100;28;54888;-86
2022/11/23 02:59:26;;;;;;;;;4.75;3.50;;;;;7.69;76.10;99588.06;4964227;28;45534;-87
2022/11/23 03:01:52;;;;;;;;;2.50;1.00;;;;;7.72;76.16;99582.78;4963547;28;51560;-86
2022/11/23 03:04:17;;;;;;;;;4.25;1.25;;;;;7.78;76.18;99586.91;4980410;28;45436;-86
2022/11/23 03:06:43;;;;;;;;;4.00;2.00;;;;;7.79;75.54;99565.28;4983222;28;45507;-86
2022/11/23 03:09:08;;;;;;;;;1.50;1.00;;;;;7.79;76.30;99575.66;4983421;28;45554;-86
2022/11/23 03:11:33;;;;;;;;;3.00;3.00;;;;;7.80;76.48;99570.44;5015140;28;70009;-87
2022/11/23 03:13:59;;;;;;;;;4.25;3.00;;;;;7.81;76.72;99560.91;4998650;28;71331;-86
2022/11/23 03:16:24;;;;;;;;;4.00;1.00;;;;;7.85;75.87;99560.72;4999699;28;45436;-86
2022/11/23 03:18:50;;;;;;;;;1.75;1.00;;;;;7.88;76.33;99552.00;4999792;28;45504;-86
2022/11/23 03:21:15;;;;;;;;;2.00;2.00;;;;;7.88;76.09;99550.25;4982652;28;55762;-87
2022/11/23 03:23:41;;;;;;;;;2.00;2.00;;;;;7.86;76.31;99551.22;5030734;28;70615;-86
2022/11/23 03:26:06;;;;;;;;;2.50;2.00;;;;;7.86;76.41;99551.22;5060285;28;45489;-86
2022/11/23 03:28:31;;;;;;;;;8.00;4.00;;;;;7.82;76.22;99540.13;5060411;28;45499;-86
2022/11/23 03:30:57;;;;;;;;;1.00;0.00;;;;;7.81;76.22;99541.00;5059598;28;64984;-86
2022/11/23 03:33:22;;;;;;;;;3.00;1.00;;;;;7.78;76.35;99540.28;5042831;28;63637;-86
2022/11/23 03:35:47;;;;;;;;;1.00;1.00;;;;;7.77;76.70;99536.00;5059752;28;60383;-86
2022/11/23 03:38:13;;;;;;;;;5.50;2.00;;;;;7.75;76.53;99531.72;5060284;28;45698;-87
2022/11/23 03:40:39;;;;;;;;;8.75;2.00;;;;;7.78;76.55;99537.69;5059743;28;46445;-86
2022/11/23 03:43:04;;;;;;;;;7.00;3.50;;;;;7.82;76.76;99534.94;5060281;28;45324;-86
2022/11/23 03:45:30;;;;;;;;;3.00;2.50;;;;;7.89;77.20;99530.38;5060279;28;45346;-87
2022/11/23 03:47:55;;;;;;;;;2.00;2.00;;;;;7.94;77.17;99520.69;5060183;28;45447;-87
2022/11/23 03:50:21;;;;;;;;;2.00;2.00;;;;;7.95;77.06;99524.97;5077426;28;62994;-87
2022/11/23 03:52:49;;;;;;;;;8.75;3.50;;;;;7.99;76.99;99523.13;5058953;28;65129;-86
2022/11/23 03:55:15;;;;;;;;;2.00;2.00;;;;;8.00;77.13;99528.22;5076945;27;65506;-86
2022/11/23 03:57:40;;;;;;;;;5.00;2.00;;;;;8.03;76.91;99520.34;5076901;28;45500;-86
2022/11/23 04:00:07;;;;;;;;;4.50;1.50;;;;;8.07;77.09;99523.66;5075869;28;69211;-86
2022/11/23 04:02:33;;;;;;;;;2.50;1.00;;;;;8.10;77.03;99519.19;5076659;27;45811;-86
2022/11/23 04:04:58;;;;;;;;;2.00;2.00;;;;;8.14;76.87;99515.59;5077380;27;45442;-86
2022/11/23 04:07:23;;;;;;;;;5.00;2.50;;;;;8.18;77.34;99518.91;5077178;27;63458;-86
2022/11/23 04:09:49;;;;;;;;;0.50;0.50;;;;;8.25;77.18;99520.34;5075843;28;55691;-86
2022/11/23 04:12:14;;;;;;;;;4.00;2.00;;;;;8.29;77.27;99518.50;5075692;28;68771;-86
2022/11/23 04:14:39;;;;;;;;;1.25;1.25;;;;;8.30;77.22;99517.56;5075823;28;63490;-86
2022/11/23 04:17:05;;;;;;;;;2.00;1.50;;;;;8.28;77.71;99509.88;5076561;28;45281;-86
2022/11/23 04:19:30;;;;;;;;;1.50;1.50;;;;;8.26;77.16;99509.06;5058655;28;71015;-86
2022/11/23 04:21:55;;;;;;;;;2.00;1.00;;;;;8.30;77.45;99517.56;5075452;28;69015;-86
2022/11/23 04:24:21;;;;;;;;;3.50;3.50;;;;;8.34;77.66;99509.63;5076179;28;45396;-86
2022/11/23 04:26:46;;;;;;;;;5.50;2.50;;;;;8.35;76.97;99510.47;5076851;27;61570;-86
2022/11/23 04:29:12;;;;;;;;;6.50;2.00;;;;;8.32;77.41;99507.97;5059211;28;49058;-86
2022/11/23 04:31:37;;;;;;;;;7.00;1.75;;;;;8.32;77.61;99508.84;5076197;28;45627;-86
2022/11/23 04:34:02;;;;;;;;;6.25;2.00;;;;;8.30;77.78;99502.88;5075889;28;57848;-86
2022/11/23 04:36:28;;;;;;;;;3.25;3.25;;;;;8.31;77.53;99501.13;5075772;28;58716;-87
2022/11/23 04:38:53;;;;;;;;;2.50;1.50;;;;;8.30;77.72;99494.25;5075802;28;46051;-86
2022/11/23 04:41:18;;;;;;;;;5.00;2.00;;;;;8.30;78.44;99494.25;5077294;27;45285;-86
2022/11/23 04:43:46;;;;;;;;;1.75;1.75;;;;;8.28;78.01;99489.13;5059174;28;45364;-86
2022/11/23 04:46:12;;;;;;;;;1.00;1.00;;;;;8.29;77.96;99487.38;5076024;28;45301;-86
2022/11/23 04:48:37;;;;;;;;;5.25;2.50;;;;;8.29;78.40;99469.22;5059041;28;47811;-85
2022/11/23 04:51:02;;;;;;;;;4.00;4.00;;;;;8.26;78.07;99477.97;5075388;28;58132;-86
2022/11/23 04:53:28;;;;;;;;;6.00;1.00;;;;;8.23;78.29;99480.69;5076793;28;45359;-86
2022/11/23 04:55:53;;;;;;;;;5.50;2.50;;;;;8.20;78.59;99474.78;5076408;28;64299;-86
2022/11/23 04:58:18;;;;;;;;;6.50;3.75;;;;;8.19;78.23;99481.72;5076480;27;59909;-86
2022/11/23 05:00:44;;;;;;;;;2.00;1.00;;;;;8.19;78.81;99470.50;5075780;28;45352;-86
2022/11/23 05:03:09;;;;;;;;;4.75;3.00;;;;;8.25;78.68;99467.69;5058178;28;61375;-86
2022/11/23 05:05:38;;;;;;;;;3.00;1.00;;;;;8.26;78.62;99462.41;5076858;27;45510;-87
2022/11/23 05:08:04;;;;;;;;;8.00;1.50;;;;;8.30;78.48;99463.13;5075230;28;45654;-86
2022/11/23 05:10:29;;;;;;;;;4.50;1.75;;;;;8.30;78.45;99465.72;5076921;27;45459;-86
2022/11/23 05:12:54;;;;;;;;;5.25;2.75;;;;;8.29;78.46;99464.88;5075768;28;45597;-87
2022/11/23 05:15:20;;;;;;;;;2.75;2.00;;;;;8.27;78.84;99463.28;5076129;28;45410;-86
2022/11/23 05:17:45;;;;;;;;;1.50;1.50;;;;;8.25;78.48;99463.31;5074940;28;58718;-86
2022/11/23 05:20:11;;;;;;;;;4.25;2.00;;;;;8.25;78.90;99475.44;5058140;28;56585;-87
2022/11/23 05:22:36;;;;;;;;;4.50;4.00;;;;;8.26;78.93;99467.59;5075269;28;45317;-86
2022/11/23 05:25:01;;;;;;;;;8.00;5.25;;;;;8.26;79.14;99471.94;5075380;28;45371;-86
2022/11/23 05:27:27;;;;;;;;;6.25;4.00;;;;;8.25;78.77;99472.84;5075295;28;46768;-86
2022/11/23 05:29:52;;;;;;;;;8.25;4.00;;;;;8.29;78.89;99480.44;5075319;28;45476;-86
2022/11/23 05:32:17;;;;;;;;;6.75;5.50;;;;;8.31;78.86;99480.38;5058353;28;45433;-87
2022/11/23 05:34:43;;;;;;;;;8.25;3.50;;;;;8.31;78.82;99486.41;5075985;28;58877;-86
2022/11/23 05:37:08;;;;;;;;;4.00;4.00;;;;;8.31;78.31;99485.56;5076125;27;46306;-86
2022/11/23 05:39:33;;;;;;;;;2.00;2.00;;;;;8.32;78.66;99489.84;5075249;28;45371;-86
2022/11/23 05:41:59;;;;;;;;;4.00;2.00;;;;;8.31;78.77;99470.00;5074128;28;66896;-86
2022/11/23 05:44:24;;;;;;;;;2.75;1.25;;;;;8.32;78.60;99479.47;5075190;27;45308;-86
2022/11/23 05:46:50;;;;;;;;;0.75;0.75;;;;;8.37;78.77;99480.13;5074956;28;49011;-87
2022/11/23 05:49:15;;;;;;;;;3.75;2.00;;;;;8.38;78.58;99471.47;5074379;28;70159;-86
2022/11/23 05:51:40;;;;;;;;;4.25;2.00;;;;;8.39;78.85;99474.88;5074729;28;45489;-86
2022/11/23 05:54:06;;;;;;;;;2.00;1.00;;;;;8.38;78.42;99476.66;5074059;28;63456;-86
2022/11/23 05:56:31;;;;;;;;;3.75;2.00;;;;;8.35;78.72;99471.56;5074923;28;46922;-86
2022/11/23 05:58:56;;;;;;;;;1.00;1.00;;;;;8.34;78.83;99472.50;5074192;28;67486;-87
2022/11/23 06:01:22;;;;;;;;;6.00;1.00;;;;;8.33;78.94;99465.59;5074887;28;45335;-86
2022/11/23 06:03:49;;;;;;;;;1.00;1.00;;;;;8.37;78.83;99466.34;5056944;28;66943;-86
2022/11/23 06:06:14;;;;;;;;;8.00;2.00;;;;;8.40;78.84;99461.03;5075507;27;46430;-86
2022/11/23 06:08:39;;;;;;;;;2.00;2.00;;;;;8.44;78.93;99458.28;5073981;28;71467;-86
2022/11/23 06:11:05;;;;;;;;;4.75;3.50;;;;;8.48;78.48;99452.03;5075268;27;65327;-86
2022/11/23 06:13:30;;;;;;;;;6.00;3.50;;;;;8.51;78.66;99454.53;5074779;28;45285;-85
2022/11/23 06:15:56;;;;;;;;;1.25;1.25;;;;;8.55;78.42;99454.41;5074579;28;48205;-85
2022/11/23 06:18:21;;;;;;;;;1.75;1.00;;;;;8.56;78.82;99450.91;5074705;28;45367;-86
2022/11/23 06:20:46;;;;;;;;;1.50;1.00;;;;;8.56;79.00;99459.50;5074426;28;45284;-86
2022/11/23 06:23:12;;;;;;;;;4.25;3.25;;;;;8.61;79.24;99457.56;5057731;28;45783;-86
2022/11/23 06:25:38;;;;;;;;;4.00;2.00;;;;;8.59;78.62;99450.78;5073871;28;63757;-87
2022/11/23 06:28:03;;;;;;;;;5.75;1.75;;;;;8.60;78.85;99445.53;5076876;28;45332;-87
2022/11/23 06:30:29;;;;;;;;;2.75;2.75;;;;;8.60;78.65;99439.47;5078458;28;45417;-85
2022/11/23 06:32:55;;;;;;;;;1.75;1.00;;;;;8.61;79.09;99444.59;5078254;28;45350;-87
2022/11/23 06:35:21;;;;;;;;;1.75;0.50;;;;;8.59;79.22;99446.44;5078956;28;46566;-86
2022/11/23 06:37:53;;;;;;;;;5.00;2.00;;;;;8.59;79.17;99435.22;5060268;28;70748;-86
2022/11/23 06:40:18;;;;;;;;;1.75;1.75;;;;;8.60;79.05;99418.72;5078050;28;45348;-86
2022/11/23 06:42:44;;;;;;;;;2.00;2.00;;;;;8.60;79.12;99426.50;5078044;28;45319;-86
2022/11/23 06:45:10;;;;;;;;;6.00;1.00;;;;;8.62;79.21;99414.34;5077766;28;46163;-85
2022/11/23 06:47:35;;;;;;;;;2.75;2.00;;;;;8.62;79.24;99412.59;5094388;27;62718;-86
2022/11/23 06:50:00;;;;;;;;;2.00;2.00;;;;;8.64;78.96;99409.94;5077633;28;45547;-86
2022/11/23 06:52:26;;;;;;;;;5.50;3.00;;;;;8.66;79.20;99405.53;5076867;28;66701;-86
2022/11/23 06:54:51;;;;;;;;;4.00;2.00;;;;;8.67;79.44;99408.06;5093654;27;75547;-86
2022/11/23 06:57:16;;;;;;;;;2.25;1.75;;;;;8.68;79.16;99407.13;5077104;28;62332;-86
2022/11/23 06:59:44;;;;;;;;;5.00;2.00;;;;;8.65;79.51;99399.47;5077499;28;53327;-86
2022/11/23 07:02:09;;;;;;;;;9.00;4.00;;;;;8.66;79.64;99400.34;5060898;28;45363;-86
2022/11/23 07:04:35;;;;;;;;;5.75;4.00;;;;;8.68;79.25;99401.94;5078328;27;46265;-86
2022/11/23 07:07:00;;;;;;;;;7.25;4.00;;;;;8.70;79.61;99394.94;5076568;28;71260;-86
2022/11/23 07:09:25;;;;;;;;;7.75;2.00;;;;;8.74;79.20;99397.41;5077034;28;58860;-86
2022/11/23 07:11:51;;;;;;;;;1.75;1.75;;;;;8.75;79.46;99391.28;5078244;27;57956;-86
2022/11/23 07:14:16;;;;;;;;;6.00;3.25;;;;;8.78;79.11;99386.81;5077801;27;68719;-86
2022/11/23 07:16:41;;;;;;;;;5.00;1.00;;;;;8.78;79.07;99394.59;5076838;28;62869;-86
2022/11/23 07:19:07;;;;;;;;;3.00;1.00;;;;;8.79;79.03;99398.06;5077259;28;45641;-86
2022/11/23 07:21:32;;;;;;;;;9.75;3.00;;;;;8.78;79.21;99404.97;5078747;28;45217;-86
2022/11/23 07:23:58;;;;;;;;;11.00;4.00;;;;;8.80;78.76;99404.91;5077304;28;46400;-86
2022/11/23 07:26:23;;;;;;;;;3.25;3.25;;;;;8.83;79.06;99410.81;5077001;28;50198;-86
2022/11/23 07:28:48;;;;;;;;;8.50;3.00;;;;;8.84;79.03;99407.34;5077340;28;45371;-86
2022/11/23 07:31:14;;;;;;;;;5.75;2.00;;;;;8.84;78.56;99407.34;5059588;28;62969;-86
2022/11/23 07:33:44;;;;;;;;;2.00;2.00;;;;;8.89;78.91;99407.13;5076786;28;47098;-86
2022/11/23 07:36:09;;;;;;;;;5.25;4.00;;;;;8.93;78.69;99413.84;5077131;28;45800;-86
2022/11/23 07:38:34;;;;;;;;;2.75;1.50;;;;;8.94;78.24;99418.16;5076459;28;45503;-87
2022/11/23 07:41:00;;;;;;;;;5.00;1.25;;;;;8.96;78.13;99411.13;5075785;28;69450;-86
2022/11/23 07:43:26;;;;;;;;;3.25;1.50;;;;;8.97;77.87;99405.06;5077086;28;46074;-86
2022/11/23 07:45:54;;;;;;;;;1.75;1.75;;;;;8.99;78.17;99410.16;5076864;28;45400;-86
2022/11/23 07:48:19;;;;;;;;;5.25;2.00;;;;;9.01;77.89;99408.34;5076754;28;45297;-87
2022/11/23 07:50:45;;;;;;;;;4.50;1.75;;;;;9.02;77.63;99408.25;5077908;28;59308;-86
2022/11/23 07:53:10;;;;;;;;;2.75;2.00;;;;;9.03;77.61;99414.31;5059614;28;47106;-88
2022/11/23 07:55:35;;;;;;;;;2.00;1.00;;;;;9.03;77.77;99404.78;5075926;28;71635;-86
2022/11/23 07:58:01;;;;;;;;;2.00;2.00;;;;;9.03;77.59;99397.00;5077096;28;45312;-86
2022/11/23 08:00:27;;;;;;;;;1.00;1.00;;;;;9.05;77.26;99402.94;5076956;28;45383;-86
2022/11/23 08:02:52;;;;;;;;;2.50;1.00;;;;;9.08;77.68;99396.78;5076506;28;46076;-87
2022/11/23 08:05:18;;;;;;;;;2.75;1.25;;;;;9.08;77.92;99401.97;5076463;27;45332;-87
2022/11/23 08:07:44;;;;;;;;;1.75;1.75;;;;;9.05;78.19;99410.75;5076681;28;45345;-87
2022/11/23 08:10:11;;;;;;;;;1.00;1.00;;;;;9.03;78.17;99412.56;5076709;28;45597;-87
2022/11/23 08:12:59;;;;;;;;;1.00;1.00;;;;;8.94;78.24;99399.16;5076558;28;46971;-95
2022/11/23 08:15:32;;;;;;;;;3.75;0.75;;;;;8.91;78.77;99403.56;5077250;28;45358;-92
2022/11/23 08:18:04;;;;;;;;;2.00;2.00;;;;;8.87;78.44;99396.81;5044898;28;45451;-87
2022/11/23 08:20:30;;;;;;;;;1.00;1.00;;;;;8.80;79.21;99407.50;5078728;27;45572;-89
2022/11/23 08:23:09;;;;;;;;;5.25;1.00;;;;;8.72;79.60;99395.72;5060183;28;46976;-89
2022/11/23 08:25:34;;;;;;;;;3.75;1.25;;;;;8.72;79.74;99393.13;5061392;28;45855;-86
2022/11/23 08:28:02;;;;;;;;;1.25;1.00;;;;;8.77;79.62;99382.56;5059462;28;45414;-85
2022/11/23 08:30:31;;;;;;;;;2.00;1.00;;;;;8.79;79.46;99370.34;5058984;28;45398;-87
2022/11/23 08:32:56;;;;;;;;;3.00;1.00;;;;;8.82;79.93;99366.78;5077136;27;45389;-87
2022/11/23 08:35:45;;;;;;;;;1.00;1.00;;;;;8.84;79.48;99360.63;5059314;28;45613;-87
2022/11/23 08:38:11;;;;;;;;;3.25;2.00;;;;;8.86;79.59;99364.00;5077875;27;45445;-87
2022/11/23 08:40:40;;;;;;;;;3.25;2.00;;;;;8.93;79.58;99361.94;5041905;27;45480;-84
2022/11/23 08:43:05;;;;;;;;;2.00;0.75;;;;;8.98;79.26;99341.84;5076183;27;46782;-85
2022/11/23 08:45:31;;;;;;;;;2.00;2.00;;;;;9.05;79.34;99327.69;5075091;28;57159;-86
2022/11/23 08:48:00;;;;;;;;;2.75;0.75;;;;;9.16;79.20;99308.19;5076758;28;54587;-84
2022/11/23 08:50:29;;;;;;;;;3.50;1.00;;;;;9.19;78.79;99295.88;5085248;27;45900;-88
2022/11/23 08:52:58;;;;;;;;;2.25;0.75;;;;;9.17;78.21;99294.28;5053784;28;45747;-85
2022/11/23 08:55:25;;;;;;;;;2.00;1.00;;;;;9.15;78.52;99301.31;5035922;28;45430;-82
2022/11/23 08:57:54;;;;;;;;;2.50;1.00;;;;;9.15;78.68;99309.09;5065305;28;46645;-83
2022/11/23 09:00:19;;;;;;;;;1.00;1.00;;;;;9.21;78.24;99309.66;5064660;27;45516;-83
2022/11/23 09:02:45;;;;;;;;;0.25;0.25;;;;;9.21;77.98;99312.25;5064330;27;46190;-83
2022/11/23 09:05:10;;;;;;;;;2.25;1.25;;;;;9.21;77.79;99304.47;5065617;27;73367;-84
2022/11/23 09:07:35;;;;;;;;;1.00;1.00;;;;;9.19;78.45;99310.63;5065598;27;45277;-85
2022/11/23 09:10:01;;;;;;;;;1.50;1.50;;;;;9.21;78.37;99301.00;5076117;27;63109;-83
2022/11/23 09:12:26;;;;;;;;;1.00;1.00;;;;;9.21;78.99;99304.47;5044665;27;67632;-85
2022/11/23 09:14:52;;;;;;;;;1.00;1.00;;;;;9.14;78.47;99281.44;5070144;27;62315;-84
2022/11/23 09:17:17;;;;;;;;;1.00;1.00;;;;;9.10;78.91;99278.13;5070843;27;61285;-83
2022/11/23 09:19:42;;;;;;;;;2.75;1.00;;;;;9.07;79.54;99299.91;5081221;27;68567;-84
2022/11/23 09:22:07;;;;;;;;;2.25;1.00;;;;;9.05;79.11;99299.13;5092105;27;57245;-84
2022/11/23 09:24:33;;;;;;;;;2.75;1.00;;;;;9.01;80.26;99301.94;5075421;27;68137;-85
2022/11/23 09:26:58;;;;;;;;;0.50;0.50;;;;;9.00;79.97;99295.06;5082848;27;70457;-85
2022/11/23 09:29:24;;;;;;;;;2.00;1.00;;;;;8.96;79.79;99299.53;5038350;28;66711;-86
2022/11/23 09:31:49;;;;;;;;;4.25;0.00;;;;;8.90;80.46;99307.63;5079345;27;45462;-86
2022/11/23 09:34:15;;;;;;;;;2.00;1.00;;;;;8.86;80.80;99301.72;5056101;28;45767;-87
2022/11/23 09:36:40;;;;;;;;;4.25;1.00;;;;;8.85;81.20;99304.38;5040532;28;45456;-88
2022/11/23 09:39:06;;;;;;;;;1.00;1.00;;;;;8.83;81.51;99307.03;5058085;28;45617;-90
2022/11/23 09:42:19;;;;;;;;;1.50;0.00;;;;;8.80;81.14;99301.97;5057925;28;46145;-90
2022/11/23 09:45:10;;;;;;;;;0.00;0.00;;;;;8.79;81.85;99299.47;5064062;27;45594;-93
2022/11/23 09:47:44;;;;;;;;;3.25;1.00;;;;;8.79;81.96;99304.66;4999234;28;45523;-96
2022/11/23 09:51:11;;;;;;;;;1.00;1.00;;;;;8.77;82.20;99296.94;5013773;28;45346;-96
2022/11/23 09:53:51;;;;;;;;;2.50;1.00;;;;;8.78;82.63;99293.41;4928998;28;47108;-89
2022/11/23 09:56:26;;;;;;;;;5.25;1.00;;;;;8.82;82.56;99289.81;4965955;28;45818;-88
2022/11/23 09:58:55;;;;;;;;;0.00;0.00;;;;;8.84;83.07;99287.09;4971728;28;45607;-90
2022/11/23 10:01:20;;;;;;;;;0.00;0.00;;;;;8.81;82.46;99285.50;4959584;28;45511;-90
2022/11/23 10:03:46;;;;;;;;;1.00;1.00;;;;;8.81;82.89;99289.84;4962303;28;46927;-88
2022/11/23 10:06:14;;;;;;;;;1.00;1.00;;;;;8.79;83.48;99289.94;4976235;28;45444;-85
2022/11/23 10:09:04;;;;;;;;;1.00;1.00;;;;;8.79;84.01;99294.28;4972532;28;45847;-84
2022/11/23 10:11:48;;;;;;;;;1.50;1.50;;;;;8.74;83.78;99284.09;4954843;28;45530;-83
2022/11/23 10:14:51;;;;;;;;;6.25;2.00;;;;;8.71;84.50;99281.63;4970711;28;46526;-81
2022/11/23 10:17:51;;;;;;;;;4.00;1.00;;;;;8.68;84.60;99280.03;4970776;28;45444;-83
2022/11/23 10:20:50;;;;;;;;;2.00;1.00;;;;;8.68;84.58;99293.00;4969605;28;45502;-82
2022/11/23 10:23:39;;;;;;;;;5.00;1.50;;;;;8.69;85.23;99281.72;4951845;28;45672;-82
2022/11/23 10:26:10;;;;;;;;;3.00;2.00;;;;;8.70;85.30;99288.56;4999420;28;46142;-82
2022/11/23 10:28:36;;;;;;;;;5.25;4.00;;;;;8.71;85.26;99304.97;4989857;28;45592;-81
2022/11/23 10:31:12;;;;;;;;;3.50;2.00;;;;;8.69;85.59;99301.59;5061402;28;59318;-83
2022/11/23 10:33:58;;;;;;;;;4.50;2.00;;;;;8.74;85.41;99322.16;5055330;28;45674;-86
2022/11/23 10:36:23;;;;;;;;;5.00;2.00;;;;;8.75;85.57;99334.22;5055250;28;46459;-83
2022/11/23 10:38:55;;;;;;;;;6.00;2.50;;;;;8.77;85.43;99327.25;5072601;28;67082;-83
2022/11/23 10:41:20;;;;;;;;;5.25;3.50;;;;;8.79;86.02;99321.06;5069017;28;45617;-83
2022/11/23 10:44:15;;;;;;;;;5.50;2.00;;;;;8.79;85.81;99308.09;5062094;28;45497;-82
2022/11/23 10:46:40;;;;;;;;;5.75;2.00;;;;;8.82;85.89;99307.09;5051225;28;47502;-86
2022/11/23 10:49:16;;;;;;;;;1.75;1.75;;;;;8.85;86.08;99320.78;5054995;28;45512;-82
2022/11/23 10:51:51;;;;;;;;;1.00;1.00;;;;;8.90;86.02;99316.22;5050998;28;45578;-85
2022/11/23 10:54:31;;;;;;;;;1.00;1.00;;;;;8.95;86.38;99331.59;5072663;28;45495;-84
2022/11/23 10:57:01;;;;;;;;;0.75;0.50;;;;;8.99;85.96;99320.19;5037765;28;47542;-86
2022/11/23 10:59:33;;;;;;;;;4.00;0.75;;;;;9.10;86.33;99319.66;5073317;28;45718;-85
2022/11/23 11:02:21;;;;;;;;;1.00;1.00;;;;;9.19;86.16;99316.66;5085580;27;45414;-87
2022/11/23 11:04:48;;;;;;;;;0.00;0.00;;;;;9.25;86.07;99319.00;5042429;28;45664;-85
2022/11/23 11:07:27;;;;;;;;;0.00;0.00;;;;;9.35;85.96;99318.56;5073121;28;46190;-86
2022/11/23 11:10:02;;;;;;;;;2.00;1.75;;;;;9.46;86.11;99324.94;5073258;28;46207;-86
2022/11/23 11:12:32;;;;;;;;;1.50;0.00;;;;;9.56;86.59;99322.72;5056531;28;45580;-86
2022/11/23 11:15:14;;;;;;;;;0.00;0.00;;;;;9.62;85.63;99327.66;5067198;28;45573;-86
2022/11/23 11:17:40;;;;;;;;;2.75;1.00;;;;;9.66;85.33;99342.19;5069618;27;45448;-86
2022/11/23 11:20:24;;;;;;;;;2.00;1.00;;;;;9.73;85.46;99341.88;5060054;28;45896;-86
2022/11/23 11:22:50;;;;;;;;;1.00;1.00;;;;;9.74;85.49;99346.19;5072178;27;45475;-86
2022/11/23 11:25:34;;;;;;;;;1.50;0.00;;;;;9.76;85.72;99347.78;5075796;28;67316;-87
2022/11/23 11:28:02;;;;;;;;;0.75;0.00;;;;;9.79;85.90;99352.84;5067659;28;46405;-87
2022/11/23 11:30:35;;;;;;;;;2.00;1.00;;;;;9.88;85.79;99362.78;5042565;28;45397;-88
2022/11/23 11:33:32;;;;;;;;;0.00;0.00;;;;;9.98;85.94;99360.59;5052394;28;45528;-85
2022/11/23 11:35:58;;;;;;;;;0.00;0.00;;;;;10.08;86.39;99361.84;5061208;28;45454;-84
2022/11/23 11:38:28;;;;;;;;;1.00;0.00;;;;;10.15;86.31;99370.16;5053786;28;45566;-87
2022/11/23 11:40:56;;;;;;;;;1.75;1.00;;;;;10.26;86.51;99372.25;5061943;27;45394;-85
2022/11/23 11:43:29;;;;;;;;;0.00;0.00;;;;;10.41;86.32;99379.31;5062442;27;45428;-86
2022/11/23 11:45:57;;;;;;;;;0.00;0.00;;;;;10.56;86.37;99371.66;5049107;28;45895;-84
2022/11/23 11:48:45;;;;;;;;;0.00;0.00;;;;;10.76;85.88;99370.63;5079582;27;45643;-87